createdAt,value
2022-11-13T00:03:54.582Z,9.08
2022-11-13T00:09:16.138Z,9.03
2022-11-13T00:14:37.720Z,8.73
2022-11-13T00:19:58.942Z,9.06
2022-11-13T00:25:20.331Z,9.06
2022-11-13T00:30:41.914Z,9.04
2022-11-13T00:36:08.919Z,9.01
2022-11-13T00:41:29.978Z,8.90
2022-11-13T00:46:51.795Z,8.94
2022-11-13T00:52:12.834Z,8.96
2022-11-13T00:57:34.224Z,8.92
2022-11-13T01:02:55.231Z,8.86
2022-11-13T01:08:16.648Z,8.92
2022-11-13T01:13:38.682Z,8.84
2022-11-13T01:18:59.926Z,8.74
2022-11-13T01:24:20.940Z,8.78
2022-11-13T01:29:42.789Z,8.73
2022-11-13T01:35:04.188Z,8.53
2022-11-13T01:40:25.340Z,8.62
2022-11-13T01:45:58.495Z,8.61
2022-11-13T01:51:30.458Z,8.40
2022-11-13T01:56:52.392Z,8.43
2022-11-13T02:02:13.310Z,8.32
2022-11-13T02:07:34.513Z,8.33
2022-11-13T02:12:55.656Z,8.28
2022-11-13T02:18:18.555Z,8.17
2022-11-13T02:24:07.287Z,8.21
2022-11-13T02:29:28.714Z,7.95
2022-11-13T02:34:49.568Z,8.11
2022-11-13T02:40:11.311Z,7.99
2022-11-13T02:45:32.446Z,8.01
2022-11-13T02:50:53.883Z,7.98
2022-11-13T02:56:15.576Z,7.88
2022-11-13T03:01:36.502Z,7.78
2022-11-13T03:06:57.841Z,7.64
2022-11-13T03:12:19.058Z,7.61
2022-11-13T03:17:40.469Z,7.72
2022-11-13T03:23:01.404Z,7.72
2022-11-13T03:28:22.629Z,7.72
2022-11-13T03:33:43.785Z,7.76
2022-11-13T03:39:05.586Z,7.74
2022-11-13T03:44:26.856Z,7.76
2022-11-13T03:49:48.298Z,7.71
2022-11-13T03:55:09.600Z,7.73
2022-11-13T04:00:31.529Z,7.63
2022-11-13T04:05:52.609Z,7.54
2022-11-13T04:11:13.795Z,7.41
2022-11-13T04:16:35.060Z,7.05
2022-11-13T04:21:56.171Z,6.92
2022-11-13T04:27:17.266Z,6.97
2022-11-13T04:32:38.552Z,6.95
2022-11-13T04:37:59.840Z,6.87
2022-11-13T04:43:20.897Z,6.79
2022-11-13T04:48:42.181Z,6.70
2022-11-13T04:54:03.691Z,6.68
2022-11-13T04:59:24.705Z,6.81
2022-11-13T05:04:47.562Z,6.84
2022-11-13T05:10:08.736Z,6.92
2022-11-13T05:15:30.040Z,6.91
2022-11-13T05:20:51.348Z,6.79
2022-11-13T05:26:14.010Z,6.84
2022-11-13T05:31:35.129Z,6.83
2022-11-13T05:36:56.343Z,6.92
2022-11-13T05:42:17.755Z,7.05
2022-11-13T05:47:39.056Z,7.12
2022-11-13T05:53:00.324Z,7.15
2022-11-13T05:58:21.624Z,7.14
2022-11-13T06:03:43.495Z,7.20
2022-11-13T06:09:07.168Z,7.21
2022-11-13T06:14:28.479Z,7.02
2022-11-13T06:19:49.636Z,5.64
2022-11-13T06:25:11.100Z,4.78
2022-11-13T06:30:32.492Z,4.58
2022-11-13T06:35:53.787Z,4.58
2022-11-13T06:41:16.740Z,4.70
2022-11-13T06:46:37.779Z,4.87
2022-11-13T06:51:59.131Z,4.89
2022-11-13T06:57:20.416Z,4.84
2022-11-13T07:02:41.763Z,4.95
2022-11-13T07:08:03.280Z,5.02
2022-11-13T07:13:26.738Z,5.18
2022-11-13T07:18:52.641Z,5.12
2022-11-13T07:24:16.941Z,5.29
2022-11-13T07:29:39.376Z,5.26
2022-11-13T07:35:00.742Z,5.41
2022-11-13T07:40:21.752Z,5.57
2022-11-13T07:45:43.319Z,5.70
2022-11-13T07:51:04.451Z,5.84
2022-11-13T07:56:25.860Z,5.88
2022-11-13T08:01:47.291Z,5.90
2022-11-13T08:07:10.907Z,6.05
2022-11-13T08:12:32.167Z,6.07
2022-11-13T08:18:00.484Z,6.10
2022-11-13T08:23:21.919Z,6.15
2022-11-13T08:28:44.297Z,6.05
2022-11-13T08:34:05.661Z,6.18
2022-11-13T08:39:26.908Z,6.06
2022-11-13T08:44:48.174Z,6.11
2022-11-13T08:50:09.880Z,6.22
2022-11-13T08:55:32.536Z,6.26
2022-11-13T09:00:53.640Z,6.53
2022-11-13T09:06:15.344Z,6.79
2022-11-13T09:11:36.697Z,6.84
2022-11-13T09:16:58.365Z,6.77
2022-11-13T09:22:20.119Z,6.87
2022-11-13T09:27:41.190Z,6.81
2022-11-13T09:33:02.387Z,6.71
2022-11-13T09:38:24.061Z,6.67
2022-11-13T09:43:56.735Z,6.99
2022-11-13T09:49:41.891Z,6.86
2022-11-13T09:55:04.666Z,6.65
2022-11-13T10:00:29.077Z,6.51
2022-11-13T10:06:04.634Z,6.38
2022-11-13T10:11:54.893Z,6.28
2022-11-13T10:17:29.906Z,6.12
2022-11-13T10:23:15.819Z,6.39
2022-11-13T10:28:55.128Z,6.56
2022-11-13T10:34:18.209Z,6.69
2022-11-13T10:39:44.095Z,6.88
2022-11-13T10:45:13.627Z,6.75
2022-11-13T10:50:35.720Z,6.51
2022-11-13T10:55:58.032Z,6.34
2022-11-13T11:01:23.986Z,6.42
2022-11-13T11:12:30.918Z,6.26
2022-11-13T11:18:02.712Z,5.91
2022-11-13T11:23:53.269Z,5.75
2022-11-13T11:29:29.711Z,5.77
2022-11-13T11:35:05.304Z,5.89
2022-11-13T11:40:36.517Z,6.05
2022-11-13T11:45:57.887Z,6.07
2022-11-13T11:51:34.891Z,5.93
2022-11-13T11:57:00.306Z,5.80
2022-11-13T12:02:21.223Z,5.62
2022-11-13T12:07:55.741Z,5.54
2022-11-13T12:13:28.553Z,5.41
2022-11-13T12:19:10.880Z,5.30
2022-11-13T12:24:32.678Z,5.30
2022-11-13T12:30:09.291Z,5.23
2022-11-13T12:35:31.184Z,5.05
2022-11-13T12:41:24.346Z,5.13
2022-11-13T12:46:46.130Z,5.05
2022-11-13T12:52:17.054Z,5.15
2022-11-13T12:57:47.977Z,5.05
2022-11-13T13:03:24.497Z,4.98
2022-11-13T13:08:46.781Z,5.05
2022-11-13T13:14:07.794Z,4.90
2022-11-13T13:19:31.699Z,4.68
2022-11-13T13:25:06.293Z,4.48
2022-11-13T13:30:33.877Z,4.70
2022-11-13T13:36:00.459Z,4.51
2022-11-13T13:41:31.155Z,4.66
2022-11-13T13:46:52.424Z,4.60
2022-11-13T13:52:17.063Z,4.70
2022-11-13T13:57:42.576Z,4.50
2022-11-13T14:03:04.593Z,4.53
2022-11-13T14:08:27.290Z,4.56
2022-11-13T14:13:48.868Z,4.52
2022-11-13T14:19:11.910Z,4.46
2022-11-13T14:24:53.023Z,4.55
2022-11-13T14:30:27.265Z,4.37
2022-11-13T14:35:56.719Z,4.40
2022-11-13T14:41:26.075Z,4.41
2022-11-13T14:46:47.729Z,4.48
2022-11-13T14:52:23.521Z,4.55
2022-11-13T14:57:50.896Z,4.48
2022-11-13T15:03:12.893Z,4.43
2022-11-13T15:08:34.789Z,4.43
2022-11-13T15:14:00.073Z,4.16
2022-11-13T15:19:35.628Z,4.47
2022-11-13T15:24:56.758Z,4.44
2022-11-13T15:30:18.657Z,4.25
2022-11-13T15:35:41.443Z,4.15
2022-11-13T15:41:02.606Z,4.35
2022-11-13T15:46:25.043Z,4.21
2022-11-13T15:51:46.647Z,4.18
2022-11-13T15:57:18.322Z,3.99
2022-11-13T16:02:40.102Z,3.92
2022-11-13T16:08:01.204Z,3.87
2022-11-13T16:13:22.455Z,3.89
2022-11-13T16:18:43.366Z,3.85
2022-11-13T16:24:04.956Z,3.76
2022-11-13T16:29:26.112Z,3.82
2022-11-13T16:34:47.830Z,3.92
2022-11-13T16:40:30.745Z,3.93
2022-11-13T16:45:52.878Z,3.87
2022-11-13T16:51:15.054Z,3.80
2022-11-13T16:56:36.586Z,3.72
2022-11-13T17:01:57.863Z,3.83
2022-11-13T17:07:19.003Z,3.84
2022-11-13T17:12:41.260Z,3.67
2022-11-13T17:18:02.720Z,3.77
2022-11-13T17:23:26.700Z,3.77
2022-11-13T17:28:48.546Z,3.68
2022-11-13T17:34:13.257Z,3.63
2022-11-13T17:39:37.308Z,3.48
2022-11-13T17:44:58.477Z,3.36
2022-11-13T17:50:19.665Z,3.21
2022-11-13T17:55:40.647Z,3.25
2022-11-13T18:01:07.918Z,3.25
2022-11-13T18:06:29.281Z,3.29
2022-11-13T18:11:50.479Z,3.16
2022-11-13T18:17:11.422Z,3.01
2022-11-13T18:22:32.607Z,2.95
2022-11-13T18:27:53.855Z,2.96
2022-11-13T18:33:15.083Z,2.88
2022-11-13T18:38:36.625Z,2.77
2022-11-13T18:43:58.039Z,2.68
2022-11-13T18:49:19.283Z,2.68
2022-11-13T18:54:40.398Z,2.70
2022-11-13T19:00:01.597Z,2.83
2022-11-13T19:05:22.831Z,2.90
2022-11-13T19:10:44.024Z,2.83
2022-11-13T19:16:13.284Z,2.72
2022-11-13T19:21:36.213Z,2.81
2022-11-13T19:26:57.433Z,2.91
2022-11-13T19:32:21.279Z,2.95
2022-11-13T19:37:42.346Z,2.96
2022-11-13T19:43:03.605Z,3.10
2022-11-13T19:48:24.588Z,3.22
2022-11-13T19:53:46.566Z,3.11
2022-11-13T19:59:11.458Z,2.97
2022-11-13T20:04:33.460Z,2.95
2022-11-13T20:09:54.759Z,2.83
2022-11-13T20:15:16.103Z,2.74
2022-11-13T20:20:37.175Z,2.58
2022-11-13T20:26:03.604Z,2.49
2022-11-13T20:31:25.728Z,2.45
2022-11-13T20:36:46.763Z,2.53
2022-11-13T20:42:08.457Z,2.51
2022-11-13T20:47:29.504Z,2.27
2022-11-13T20:52:50.765Z,2.41
2022-11-13T20:58:11.680Z,2.43
2022-11-13T21:03:39.882Z,2.46
2022-11-13T21:09:03.650Z,2.50
2022-11-13T21:14:25.081Z,2.45
2022-11-13T21:19:46.372Z,2.34
2022-11-13T21:25:07.928Z,2.41
2022-11-13T21:30:29.283Z,2.44
2022-11-13T21:35:50.364Z,2.31
2022-11-13T21:41:22.057Z,2.41
2022-11-13T21:46:43.504Z,2.37
2022-11-13T21:52:04.730Z,2.29
2022-11-13T21:57:27.203Z,2.02
2022-11-13T22:02:48.464Z,2.22
2022-11-13T22:08:09.566Z,2.14
2022-11-13T22:13:30.910Z,2.13
2022-11-13T22:19:00.381Z,2.09
2022-11-13T22:24:21.569Z,1.75
2022-11-13T22:29:42.964Z,1.52
2022-11-13T22:35:06.038Z,1.50
2022-11-13T22:40:26.989Z,1.47
2022-11-13T22:45:48.226Z,1.44
2022-11-13T22:51:15.516Z,1.36
2022-11-13T22:56:37.948Z,1.19
2022-11-13T23:01:59.318Z,1.07
2022-11-13T23:07:20.570Z,1.13
2022-11-13T23:12:41.867Z,1.13
2022-11-13T23:18:07.161Z,1.34
2022-11-13T23:23:31.227Z,1.08
2022-11-13T23:28:52.455Z,1.19
2022-11-13T23:34:16.618Z,0.92
2022-11-13T23:39:48.157Z,0.78
2022-11-13T23:45:09.598Z,0.96
2022-11-13T23:50:30.740Z,1.05
2022-11-13T23:55:52.015Z,1.08
